createdAt,value
2022-12-19T00:01:31.164Z,77515.94
2022-12-19T00:03:04.036Z,77525.84
2022-12-19T00:04:36.825Z,77529.78
2022-12-19T00:06:10.113Z,77533.75
2022-12-19T00:07:42.903Z,77533.75
2022-12-19T00:09:29.069Z,77541.66
2022-12-19T00:11:02.378Z,77529.78
2022-12-19T00:12:35.527Z,77521.88
2022-12-19T00:14:09.622Z,77537.69
2022-12-19T00:15:42.143Z,77533.75
2022-12-19T00:17:14.826Z,77535.72
2022-12-19T00:18:48.396Z,77523.84
2022-12-19T00:20:21.255Z,77508.03
2022-12-19T00:21:54.069Z,77513.97
2022-12-19T00:23:27.932Z,77506.06
2022-12-19T00:25:00.710Z,77510.00
2022-12-19T00:26:36.226Z,77515.94
2022-12-19T00:28:08.991Z,77508.03
2022-12-19T00:29:41.535Z,77508.03
2022-12-19T00:31:14.750Z,77492.22
2022-12-19T00:32:48.026Z,77502.09
2022-12-19T00:34:20.653Z,77510.00
2022-12-19T00:35:57.853Z,77500.13
2022-12-19T00:37:30.733Z,77506.06
2022-12-19T00:39:05.689Z,77508.03
2022-12-19T00:40:40.863Z,77498.16
2022-12-19T00:42:13.546Z,77508.03
2022-12-19T00:43:49.655Z,77500.13
2022-12-19T00:45:22.978Z,77494.19
2022-12-19T00:46:55.831Z,77498.16
2022-12-19T00:48:28.596Z,77500.13
2022-12-19T00:50:01.455Z,77496.16
2022-12-19T00:51:36.467Z,77498.16
2022-12-19T00:53:09.020Z,77494.19
2022-12-19T00:54:41.609Z,77490.22
2022-12-19T00:56:15.933Z,77484.28
2022-12-19T00:57:48.722Z,77480.34
2022-12-19T00:59:26.430Z,77490.22
2022-12-19T01:01:09.365Z,77480.34
2022-12-19T01:02:42.427Z,77466.50
2022-12-19T01:04:34.383Z,77470.47
2022-12-19T01:06:08.876Z,77472.44
2022-12-19T01:07:41.647Z,77474.41
2022-12-19T01:09:14.609Z,77486.28
2022-12-19T01:10:48.541Z,77466.50
2022-12-19T01:12:39.761Z,77454.63
2022-12-19T01:14:19.082Z,77454.63
2022-12-19T01:15:55.888Z,77452.66
2022-12-19T01:17:28.798Z,77438.81
2022-12-19T01:19:01.479Z,77438.81
2022-12-19T01:20:43.893Z,77436.84
2022-12-19T01:22:16.860Z,77444.75
2022-12-19T01:23:53.250Z,77438.81
2022-12-19T01:25:25.931Z,77415.06
2022-12-19T01:26:58.604Z,77432.88
2022-12-19T01:28:32.899Z,77430.91
2022-12-19T01:30:06.284Z,77436.84
2022-12-19T01:31:39.123Z,77430.91
2022-12-19T01:33:15.368Z,77430.91
2022-12-19T01:34:48.270Z,77417.06
2022-12-19T01:36:20.802Z,77436.84
2022-12-19T01:38:08.069Z,77432.88
2022-12-19T01:39:41.583Z,77411.13
2022-12-19T01:41:16.872Z,77415.06
2022-12-19T01:42:49.930Z,77407.16
2022-12-19T01:44:25.139Z,77393.31
2022-12-19T01:46:07.092Z,77405.19
2022-12-19T01:47:42.731Z,77399.25
2022-12-19T01:49:36.870Z,77401.22
2022-12-19T01:51:15.186Z,77391.34
2022-12-19T01:52:48.460Z,77375.53
2022-12-19T01:54:22.896Z,77385.41
2022-12-19T01:55:55.787Z,77381.44
2022-12-19T01:57:28.313Z,77383.44
2022-12-19T01:59:06.139Z,77375.53
2022-12-19T02:00:43.720Z,77385.41
2022-12-19T02:02:36.646Z,77359.69
2022-12-19T02:04:10.863Z,77373.53
2022-12-19T02:05:44.153Z,77361.69
2022-12-19T02:07:19.008Z,77365.63
2022-12-19T02:08:51.847Z,77361.69
2022-12-19T02:10:25.321Z,77359.69
2022-12-19T02:12:00.297Z,77355.75
2022-12-19T02:13:33.462Z,77363.66
2022-12-19T02:15:06.834Z,77359.69
2022-12-19T02:16:51.698Z,77347.81
2022-12-19T02:18:35.221Z,77351.78
2022-12-19T02:20:10.037Z,77359.69
2022-12-19T02:21:57.922Z,77347.81
2022-12-19T02:23:37.989Z,77341.91
2022-12-19T02:25:29.457Z,77353.75
2022-12-19T02:27:12.845Z,77355.75
2022-12-19T02:28:54.749Z,77355.75
2022-12-19T02:30:46.772Z,77367.59
2022-12-19T02:32:22.830Z,77359.69
2022-12-19T02:33:59.473Z,77363.66
2022-12-19T02:35:42.793Z,77335.97
2022-12-19T02:37:37.453Z,77353.75
2022-12-19T02:39:19.302Z,77359.69
2022-12-19T02:41:06.398Z,77361.69
2022-12-19T02:42:42.553Z,77351.78
2022-12-19T02:44:21.438Z,77355.75
2022-12-19T02:45:56.564Z,77347.81
2022-12-19T02:47:33.081Z,77349.81
2022-12-19T02:49:07.133Z,77355.75
2022-12-19T02:50:42.089Z,77347.81
2022-12-19T02:52:19.550Z,77347.81
2022-12-19T02:53:55.169Z,77343.88
2022-12-19T02:55:50.002Z,77335.97
2022-12-19T02:57:29.475Z,77335.97
2022-12-19T02:59:20.738Z,77341.91
2022-12-19T03:01:00.238Z,77339.91
2022-12-19T03:02:38.812Z,77339.91
2022-12-19T03:04:16.252Z,77334.00
2022-12-19T03:05:48.841Z,77335.97
2022-12-19T03:07:33.887Z,77339.91
2022-12-19T03:09:15.652Z,77332.00
2022-12-19T03:10:51.551Z,77330.03
2022-12-19T03:12:28.700Z,77330.03
2022-12-19T03:14:04.654Z,77343.88
2022-12-19T03:15:38.434Z,77337.94
2022-12-19T03:17:11.278Z,77347.81
2022-12-19T03:18:44.581Z,77349.81
2022-12-19T03:20:35.737Z,77335.97
2022-12-19T03:22:08.807Z,77332.00
2022-12-19T03:23:41.769Z,77341.91
2022-12-19T03:25:14.535Z,77334.00
2022-12-19T03:26:54.174Z,77328.06
2022-12-19T03:28:35.337Z,77328.06
2022-12-19T03:30:10.468Z,77335.97
2022-12-19T03:31:44.462Z,77324.09
2022-12-19T03:33:18.980Z,77324.09
2022-12-19T03:34:59.111Z,77324.09
2022-12-19T03:36:35.850Z,77314.22
2022-12-19T03:38:10.503Z,77312.22
2022-12-19T03:39:46.159Z,77312.22
2022-12-19T03:41:39.653Z,77324.09
2022-12-19T03:43:13.162Z,77316.19
2022-12-19T03:44:46.058Z,77300.38
2022-12-19T03:46:25.095Z,77312.22
2022-12-19T03:48:00.544Z,77312.22
2022-12-19T03:49:33.268Z,77312.22
2022-12-19T03:51:05.861Z,77312.22
2022-12-19T03:53:01.461Z,77310.25
2022-12-19T03:54:38.757Z,77312.22
2022-12-19T03:56:23.964Z,77314.22
2022-12-19T03:58:19.310Z,77308.28
2022-12-19T03:59:56.311Z,77308.28
2022-12-19T04:01:29.840Z,77308.28
2022-12-19T04:03:03.460Z,77316.19
2022-12-19T04:04:40.859Z,77310.25
2022-12-19T04:06:13.665Z,77312.22
2022-12-19T04:07:46.703Z,77300.38
2022-12-19T04:09:22.762Z,77292.44
2022-12-19T04:10:58.014Z,77304.31
2022-12-19T04:12:34.344Z,77306.28
2022-12-19T04:14:08.959Z,77296.41
2022-12-19T04:15:41.622Z,77302.34
2022-12-19T04:17:30.313Z,77294.44
2022-12-19T04:19:10.750Z,77284.53
2022-12-19T04:20:46.008Z,77284.53
2022-12-19T04:22:23.204Z,77292.44
2022-12-19T04:24:01.285Z,77280.59
2022-12-19T04:25:43.880Z,77274.66
2022-12-19T04:27:16.742Z,77282.56
2022-12-19T04:28:52.059Z,77284.53
2022-12-19T04:30:25.116Z,77288.50
2022-12-19T04:31:57.855Z,77284.53
2022-12-19T04:33:30.580Z,77282.56
2022-12-19T04:35:03.318Z,77274.66
2022-12-19T04:36:36.177Z,77276.63
2022-12-19T04:38:08.901Z,77284.53
2022-12-19T04:39:41.590Z,77278.59
2022-12-19T04:41:14.295Z,77286.53
2022-12-19T04:42:47.220Z,77288.50
2022-12-19T04:44:19.687Z,77288.50
2022-12-19T04:45:57.130Z,77288.50
2022-12-19T04:47:33.152Z,77288.50
2022-12-19T04:49:07.598Z,77292.44
2022-12-19T04:50:40.588Z,77308.28
2022-12-19T04:52:13.265Z,77298.38
2022-12-19T04:53:45.898Z,77296.41
2022-12-19T04:55:18.701Z,77286.53
2022-12-19T04:56:52.701Z,77288.50
2022-12-19T04:58:25.592Z,77292.44
2022-12-19T04:59:58.573Z,77302.34
2022-12-19T05:01:32.118Z,77290.47
2022-12-19T05:03:05.239Z,77300.38
2022-12-19T05:04:38.115Z,77292.44
2022-12-19T05:06:12.543Z,77296.41
2022-12-19T05:07:45.390Z,77288.50
2022-12-19T05:09:17.969Z,77284.53
2022-12-19T05:10:50.539Z,77288.50
2022-12-19T05:12:23.282Z,77278.59
2022-12-19T05:13:56.117Z,77278.59
2022-12-19T05:15:28.727Z,77280.59
2022-12-19T05:17:01.771Z,77284.53
2022-12-19T05:18:34.865Z,77280.59
2022-12-19T05:20:08.474Z,77278.59
2022-12-19T05:21:41.509Z,77276.63
2022-12-19T05:23:17.312Z,77284.53
2022-12-19T05:24:50.571Z,77280.59
2022-12-19T05:26:23.432Z,77272.69
2022-12-19T05:27:56.105Z,77272.69
2022-12-19T05:29:28.842Z,77276.63
2022-12-19T05:31:06.593Z,77278.59
2022-12-19T05:32:39.367Z,77278.59
2022-12-19T05:34:12.157Z,77274.66
2022-12-19T05:35:44.908Z,77268.72
2022-12-19T05:37:17.539Z,77276.63
2022-12-19T05:38:50.444Z,77276.63
2022-12-19T05:40:23.239Z,77272.69
2022-12-19T05:41:55.772Z,77266.75
2022-12-19T05:43:28.959Z,77264.75
2022-12-19T05:45:02.791Z,77264.75
2022-12-19T05:46:35.904Z,77260.81
2022-12-19T05:48:09.407Z,77256.84
2022-12-19T05:49:42.285Z,77260.81
2022-12-19T05:51:15.190Z,77245.00
2022-12-19T05:52:47.831Z,77248.94
2022-12-19T05:54:20.591Z,77256.84
2022-12-19T05:55:53.431Z,77245.00
2022-12-19T05:57:26.337Z,77241.03
2022-12-19T05:58:59.035Z,77248.94
2022-12-19T06:00:32.040Z,77239.06
2022-12-19T06:02:04.895Z,77237.06
2022-12-19T06:03:37.874Z,77235.09
2022-12-19T06:05:10.431Z,77241.03
2022-12-19T06:06:43.097Z,77243.00
2022-12-19T06:08:15.860Z,77245.00
2022-12-19T06:09:49.281Z,77229.16
2022-12-19T06:11:22.214Z,77227.19
2022-12-19T06:12:54.985Z,77233.13
2022-12-19T06:14:27.460Z,77239.06
2022-12-19T06:16:01.169Z,77241.03
2022-12-19T06:17:34.690Z,77241.03
2022-12-19T06:19:07.574Z,77227.19
2022-12-19T06:20:40.141Z,77231.16
2022-12-19T06:22:13.026Z,77225.22
2022-12-19T06:23:45.739Z,77229.16
2022-12-19T06:25:18.599Z,77225.22
2022-12-19T06:26:51.360Z,77215.31
2022-12-19T06:28:25.055Z,77229.16
2022-12-19T06:29:57.707Z,77221.25
2022-12-19T06:31:30.615Z,77227.19
2022-12-19T06:33:03.933Z,77221.25
2022-12-19T06:35:03.315Z,77217.31
2022-12-19T06:36:30.941Z,77211.38
2022-12-19T06:38:03.632Z,77213.34
2022-12-19T06:39:36.271Z,77217.31
2022-12-19T06:41:28.859Z,77203.47
2022-12-19T06:43:01.852Z,77207.41
2022-12-19T06:44:34.712Z,77213.34
2022-12-19T06:46:08.267Z,77213.34
2022-12-19T06:47:41.374Z,77213.34
2022-12-19T06:49:14.178Z,77201.47
2022-12-19T06:50:47.214Z,77201.47
2022-12-19T06:52:19.885Z,77197.53
2022-12-19T06:53:52.913Z,77213.34
2022-12-19T06:55:25.507Z,77207.41
2022-12-19T06:56:58.178Z,77219.28
2022-12-19T06:58:30.814Z,77217.31
2022-12-19T07:00:05.163Z,77211.38
2022-12-19T07:01:37.871Z,77205.44
2022-12-19T07:03:12.374Z,77211.38
2022-12-19T07:04:50.389Z,77217.31
2022-12-19T07:06:23.470Z,77217.31
2022-12-19T07:07:56.132Z,77213.34
2022-12-19T07:09:29.513Z,77203.47
2022-12-19T07:11:02.139Z,77211.38
2022-12-19T07:12:36.086Z,77213.34
2022-12-19T07:14:08.610Z,77215.31
2022-12-19T07:15:43.543Z,77213.34
2022-12-19T07:17:16.665Z,77209.38
2022-12-19T07:18:49.991Z,77211.38
2022-12-19T07:20:22.852Z,77209.38
2022-12-19T07:21:55.995Z,77209.38
2022-12-19T07:23:29.535Z,77213.34
2022-12-19T07:25:03.204Z,77201.47
2022-12-19T07:26:36.173Z,77199.50
2022-12-19T07:28:09.170Z,77191.59
2022-12-19T07:29:41.739Z,77177.75
2022-12-19T07:31:14.773Z,77197.53
2022-12-19T07:32:47.599Z,77181.69
2022-12-19T07:34:20.359Z,77185.66
2022-12-19T07:35:52.951Z,77181.69
2022-12-19T07:37:25.963Z,77175.78
2022-12-19T07:38:58.566Z,77175.78
2022-12-19T07:40:31.549Z,77173.78
2022-12-19T07:42:04.252Z,77183.69
2022-12-19T07:43:42.867Z,77165.88
2022-12-19T07:45:15.650Z,77177.75
2022-12-19T07:46:48.314Z,77181.69
2022-12-19T07:48:20.952Z,77171.81
2022-12-19T07:49:54.091Z,77173.78
2022-12-19T07:51:26.869Z,77171.81
2022-12-19T07:52:59.856Z,77167.84
2022-12-19T07:54:32.492Z,77165.88
2022-12-19T07:56:05.320Z,77167.84
2022-12-19T07:57:37.934Z,77165.88
2022-12-19T07:59:10.491Z,77165.88
2022-12-19T08:00:43.132Z,77159.94
2022-12-19T08:02:16.455Z,77167.84
2022-12-19T08:03:49.958Z,77173.78
2022-12-19T08:05:22.568Z,77169.84
2022-12-19T08:06:55.209Z,77157.97
2022-12-19T08:08:28.721Z,77165.88
2022-12-19T08:10:01.526Z,77169.84
2022-12-19T08:11:35.323Z,77156.00
2022-12-19T08:13:08.070Z,77159.94
2022-12-19T08:14:40.860Z,77169.84
2022-12-19T08:16:13.788Z,77157.97
2022-12-19T08:17:46.602Z,77157.97
2022-12-19T08:19:23.428Z,77154.00
2022-12-19T08:20:58.759Z,77146.09
2022-12-19T08:22:31.987Z,77154.00
2022-12-19T08:24:05.043Z,77161.94
2022-12-19T08:25:37.674Z,77157.97
2022-12-19T08:27:10.525Z,77157.97
2022-12-19T08:28:43.697Z,77165.88
2022-12-19T08:30:16.441Z,77157.97
2022-12-19T08:31:49.087Z,77169.84
2022-12-19T08:33:22.058Z,77167.84
2022-12-19T08:34:56.885Z,77163.91
2022-12-19T08:36:29.534Z,77154.00
2022-12-19T08:38:02.222Z,77161.94
2022-12-19T08:39:35.174Z,77163.91
2022-12-19T08:41:08.325Z,77161.94
2022-12-19T08:42:40.919Z,77161.94
2022-12-19T08:44:13.674Z,77156.00
2022-12-19T08:45:48.821Z,77163.91
2022-12-19T08:47:21.575Z,77165.88
2022-12-19T08:48:54.576Z,77167.84
2022-12-19T08:50:27.447Z,77165.88
2022-12-19T08:52:00.317Z,77175.78
2022-12-19T08:53:34.830Z,77157.97
2022-12-19T08:55:08.762Z,77150.06
2022-12-19T08:56:45.176Z,77161.94
2022-12-19T08:58:19.385Z,77157.97
2022-12-19T08:59:51.978Z,77161.94
2022-12-19T09:01:26.272Z,77159.94
2022-12-19T09:03:00.483Z,77161.94
2022-12-19T09:05:57.423Z,77157.97
2022-12-19T09:06:26.877Z,77144.13
2022-12-19T09:07:59.683Z,77134.25
2022-12-19T09:09:32.386Z,77124.34
2022-12-19T09:11:06.536Z,77116.44
2022-12-19T09:12:39.448Z,77116.44
2022-12-19T09:14:12.130Z,77120.41
2022-12-19T09:15:47.300Z,77126.31
2022-12-19T09:17:21.243Z,77112.47
2022-12-19T09:18:54.952Z,77120.41
2022-12-19T09:20:27.564Z,77106.56
2022-12-19T09:22:00.343Z,77094.69
2022-12-19T09:23:33.263Z,77102.59
2022-12-19T09:25:06.217Z,77088.75
2022-12-19T09:26:42.308Z,77100.63
2022-12-19T09:28:27.466Z,77116.44
2022-12-19T09:30:00.909Z,77118.41
2022-12-19T09:31:33.731Z,77122.38
2022-12-19T09:33:06.431Z,77122.38
2022-12-19T09:34:39.301Z,77122.38
2022-12-19T09:36:13.515Z,77124.34
2022-12-19T09:37:46.251Z,77108.53
2022-12-19T09:39:19.087Z,77108.53
2022-12-19T09:40:51.745Z,77106.56
2022-12-19T09:42:30.496Z,77112.47
2022-12-19T09:44:22.953Z,77106.56
2022-12-19T09:46:04.865Z,77100.63
2022-12-19T09:47:39.561Z,77102.59
2022-12-19T09:49:18.316Z,77110.50
2022-12-19T09:50:54.090Z,77098.63
2022-12-19T09:52:38.791Z,77108.53
2022-12-19T09:54:17.158Z,77122.38
2022-12-19T09:55:49.991Z,77114.47
2022-12-19T09:57:41.438Z,77114.47
2022-12-19T09:59:39.713Z,77102.59
2022-12-19T10:01:32.885Z,77106.56
2022-12-19T10:03:20.471Z,77122.38
2022-12-19T10:05:17.935Z,77122.38
2022-12-19T10:07:16.201Z,77112.47
2022-12-19T10:09:04.886Z,77114.47
2022-12-19T10:12:38.217Z,77114.47
2022-12-19T10:13:07.655Z,77106.56
2022-12-19T10:14:53.192Z,77112.47
2022-12-19T10:17:08.542Z,77118.41
2022-12-19T10:18:56.989Z,77118.41
2022-12-19T10:20:31.090Z,77116.44
2022-12-19T10:22:22.359Z,77116.44
2022-12-19T10:23:57.968Z,77110.50
2022-12-19T10:25:42.683Z,77116.44
2022-12-19T10:27:22.441Z,77122.38
2022-12-19T10:29:02.303Z,77120.41
2022-12-19T10:30:45.141Z,77124.34
2022-12-19T10:32:37.045Z,77128.31
2022-12-19T10:34:12.886Z,77122.38
2022-12-19T10:35:46.715Z,77114.47
2022-12-19T10:37:26.569Z,77118.41
2022-12-19T10:39:08.674Z,77114.47
2022-12-19T10:40:46.266Z,77112.47
2022-12-19T10:42:34.240Z,77114.47
2022-12-19T10:44:10.397Z,77140.16
2022-12-19T10:45:49.395Z,77134.25
2022-12-19T10:47:22.229Z,77132.25
2022-12-19T10:48:55.066Z,77130.28
2022-12-19T10:50:29.861Z,77130.28
2022-12-19T10:52:04.521Z,77130.28
2022-12-19T10:53:37.113Z,77122.38
2022-12-19T10:55:33.117Z,77126.31
2022-12-19T10:57:24.784Z,77138.19
2022-12-19T10:58:59.167Z,77142.16
2022-12-19T11:00:33.547Z,77146.09
2022-12-19T11:02:12.947Z,77154.00
2022-12-19T11:03:51.908Z,77154.00
2022-12-19T11:05:27.683Z,77142.16
2022-12-19T11:07:03.736Z,77148.09
2022-12-19T11:08:37.161Z,77152.03
2022-12-19T11:11:19.314Z,77154.00
2022-12-19T11:16:13.057Z,77148.09
2022-12-19T11:19:31.327Z,77146.09
2022-12-19T11:22:46.956Z,77157.97
2022-12-19T11:24:46.942Z,77157.97
2022-12-19T11:29:32.624Z,77152.03
2022-12-19T11:29:55.167Z,77148.09
2022-12-19T11:30:09.510Z,77146.09
2022-12-19T11:30:41.130Z,77130.28
2022-12-19T11:30:43.364Z,77144.13
2022-12-19T11:32:50.443Z,77138.19
2022-12-19T11:34:24.937Z,77132.25
2022-12-19T11:36:01.388Z,77132.25
2022-12-19T11:37:39.436Z,77134.25
2022-12-19T11:39:32.492Z,77142.16
2022-12-19T11:41:12.444Z,77144.13
2022-12-19T11:42:47.868Z,77142.16
2022-12-19T11:44:29.744Z,77138.19
2022-12-19T11:46:05.554Z,77134.25
2022-12-19T11:47:38.300Z,77142.16
2022-12-19T11:49:20.008Z,77146.09
2022-12-19T11:51:04.910Z,77140.16
2022-12-19T11:54:39.191Z,77146.09
2022-12-19T11:56:17.226Z,77146.09
2022-12-19T11:57:50.215Z,77138.19
2022-12-19T11:59:41.067Z,77134.25
2022-12-19T12:01:24.110Z,77130.28
2022-12-19T12:03:15.649Z,77142.16
2022-12-19T12:04:51.364Z,77130.28
2022-12-19T12:06:31.148Z,77132.25
2022-12-19T12:08:25.516Z,77142.16
2022-12-19T12:13:45.195Z,77150.06
2022-12-19T12:19:49.588Z,77146.09
2022-12-19T12:24:14.165Z,77144.13
2022-12-19T12:28:50.614Z,77159.94
2022-12-19T12:31:07.743Z,77154.00
2022-12-19T12:31:19.067Z,77148.09
2022-12-19T12:31:19.170Z,77150.06
2022-12-19T12:31:44.725Z,77148.09
2022-12-19T12:32:03.743Z,77138.19
2022-12-19T12:32:05.401Z,77150.06
2022-12-19T12:35:13.605Z,77144.13
2022-12-19T12:35:28.854Z,77134.25
2022-12-19T12:35:31.525Z,77142.16
2022-12-19T12:39:05.359Z,77146.09
2022-12-19T12:40:50.241Z,77142.16
2022-12-19T12:42:33.060Z,77146.09
2022-12-19T12:44:08.644Z,77146.09
2022-12-19T12:45:42.454Z,77146.09
2022-12-19T12:47:23.442Z,77142.16
2022-12-19T12:48:59.052Z,77142.16
2022-12-19T12:50:34.196Z,77142.16
2022-12-19T12:52:09.603Z,77154.00
2022-12-19T12:53:44.537Z,77157.97
2022-12-19T12:55:32.312Z,77156.00
2022-12-19T12:57:05.202Z,77157.97
2022-12-19T12:58:47.364Z,77154.00
2022-12-19T13:00:28.136Z,77156.00
2022-12-19T13:02:07.121Z,77161.94
2022-12-19T13:03:42.293Z,77165.88
2022-12-19T13:05:30.389Z,77169.84
2022-12-19T13:07:21.754Z,77185.66
2022-12-19T13:09:02.574Z,77187.63
2022-12-19T13:10:53.782Z,77199.50
2022-12-19T13:12:46.231Z,77205.44
2022-12-19T13:14:34.468Z,77209.38
2022-12-19T13:16:27.304Z,77207.41
2022-12-19T13:18:02.508Z,77225.22
2022-12-19T13:19:55.375Z,77219.28
2022-12-19T13:21:48.135Z,77213.34
2022-12-19T13:23:32.612Z,77217.31
2022-12-19T13:25:24.662Z,77213.34
2022-12-19T13:26:57.648Z,77215.31
2022-12-19T13:28:30.274Z,77215.31
2022-12-19T13:30:07.659Z,77221.25
2022-12-19T13:31:40.493Z,77213.34
2022-12-19T13:33:13.560Z,77211.38
2022-12-19T13:35:04.010Z,77221.25
2022-12-19T13:39:51.267Z,77241.03
2022-12-19T13:39:57.352Z,77252.91
2022-12-19T13:40:44.927Z,77245.00
2022-12-19T13:42:39.730Z,77248.94
2022-12-19T13:44:12.735Z,77252.91
2022-12-19T13:45:51.267Z,77256.84
2022-12-19T13:47:25.047Z,77256.84
2022-12-19T13:49:01.215Z,77254.88
2022-12-19T13:50:38.923Z,77262.78
2022-12-19T13:52:12.283Z,77262.78
2022-12-19T13:53:45.406Z,77270.69
2022-12-19T13:55:19.404Z,77270.69
2022-12-19T13:56:53.793Z,77292.44
2022-12-19T13:58:46.757Z,77294.44
2022-12-19T14:00:21.986Z,77302.34
2022-12-19T14:01:55.490Z,77316.19
2022-12-19T14:03:38.942Z,77316.19
2022-12-19T14:05:30.600Z,77328.06
2022-12-19T14:07:35.990Z,77330.03
2022-12-19T14:10:24.002Z,77341.91
2022-12-19T14:11:38.928Z,77353.75
2022-12-19T14:13:55.774Z,77351.78
2022-12-19T14:15:34.950Z,77353.75
2022-12-19T14:17:15.981Z,77355.75
2022-12-19T14:18:51.885Z,77367.59
2022-12-19T14:22:01.715Z,77379.47
2022-12-19T14:22:26.221Z,77381.44
2022-12-19T14:24:09.555Z,77385.41
2022-12-19T14:28:21.795Z,77383.44
2022-12-19T14:28:26.982Z,77393.31
2022-12-19T14:30:28.682Z,77421.00
2022-12-19T14:31:58.186Z,77419.03
2022-12-19T14:33:43.768Z,77419.03
2022-12-19T14:36:05.141Z,77460.56
2022-12-19T14:38:44.940Z,77506.06
2022-12-19T14:39:34.970Z,77533.75
2022-12-19T14:41:37.287Z,77541.66
2022-12-19T14:43:58.602Z,77571.31
2022-12-19T14:54:03.817Z,77601.00
2022-12-19T14:54:15.172Z,77608.91
2022-12-19T14:54:18.274Z,77624.72
2022-12-19T14:54:41.909Z,77626.72
2022-12-19T14:54:41.911Z,77642.53
2022-12-19T14:56:12.224Z,77652.41
2022-12-19T14:58:50.439Z,77660.34
2022-12-19T14:59:35.673Z,77680.09
2022-12-19T15:01:23.485Z,77691.97
2022-12-19T15:02:58.130Z,77719.66
2022-12-19T15:04:52.056Z,77717.69
2022-12-19T15:07:06.947Z,77737.47
2022-12-19T15:09:01.233Z,77735.50
2022-12-19T15:11:06.384Z,77743.41
2022-12-19T15:14:48.363Z,77761.22
2022-12-19T15:15:30.721Z,77769.13
2022-12-19T15:17:21.440Z,77780.97
2022-12-19T15:18:57.097Z,77779.00
2022-12-19T15:20:29.837Z,77790.88
2022-12-19T15:22:05.374Z,77784.94
2022-12-19T15:23:38.560Z,77782.97
2022-12-19T15:25:36.143Z,77782.97
2022-12-19T15:27:26.942Z,77790.88
2022-12-19T15:29:00.426Z,77806.69
2022-12-19T15:30:35.997Z,77806.69
2022-12-19T15:32:13.172Z,77814.59
2022-12-19T15:34:14.365Z,77816.59
2022-12-19T15:35:39.194Z,77830.44
2022-12-19T15:37:15.769Z,77854.16
2022-12-19T15:38:48.543Z,77842.31
2022-12-19T15:40:21.290Z,77856.16
2022-12-19T15:41:54.531Z,77862.09
2022-12-19T15:44:01.734Z,77866.03
2022-12-19T15:45:20.148Z,77862.09
2022-12-19T15:46:52.937Z,77870.00
2022-12-19T15:48:26.306Z,77879.88
2022-12-19T15:50:02.950Z,77877.91
2022-12-19T15:51:36.905Z,77901.66
2022-12-19T15:53:24.396Z,77909.56
2022-12-19T15:55:04.500Z,77911.53
2022-12-19T15:56:42.745Z,77913.50
2022-12-19T15:58:16.036Z,77935.28
2022-12-19T15:59:49.388Z,77937.25
2022-12-19T16:01:22.585Z,77941.22
2022-12-19T16:04:50.579Z,77945.16
2022-12-19T16:06:23.350Z,77945.16
2022-12-19T16:07:57.054Z,77951.09
2022-12-19T16:09:31.658Z,77953.06
2022-12-19T16:11:16.075Z,77957.03
2022-12-19T16:12:54.119Z,77968.91
2022-12-19T16:14:26.933Z,77968.91
2022-12-19T16:15:59.683Z,77968.91
2022-12-19T16:17:33.518Z,77972.84
2022-12-19T16:19:22.689Z,77976.81
2022-12-19T16:20:55.338Z,77996.59
2022-12-19T16:22:28.767Z,77982.75
2022-12-19T16:24:01.312Z,77992.63
2022-12-19T16:25:36.123Z,77988.69
2022-12-19T16:27:11.917Z,77996.59
2022-12-19T16:28:44.756Z,78000.53
2022-12-19T16:30:22.271Z,77994.63
2022-12-19T16:31:55.973Z,78014.41
2022-12-19T16:33:29.902Z,78026.25
2022-12-19T16:35:02.514Z,78051.97
2022-12-19T16:36:35.155Z,78053.97
2022-12-19T16:38:09.610Z,78059.88
2022-12-19T16:39:42.501Z,78099.44
2022-12-19T16:41:16.338Z,78091.53
2022-12-19T16:42:50.042Z,78107.38
2022-12-19T16:44:24.168Z,78107.38
2022-12-19T16:46:01.037Z,78131.09
2022-12-19T16:47:34.464Z,78123.19
2022-12-19T16:49:12.143Z,78141.00
2022-12-19T16:50:45.026Z,78154.84
2022-12-19T16:52:17.613Z,78170.66
2022-12-19T16:53:53.177Z,78174.63
2022-12-19T16:55:26.292Z,78190.44
2022-12-19T16:56:59.539Z,78180.56
2022-12-19T16:58:35.584Z,78204.28
2022-12-19T17:00:13.493Z,78198.34
2022-12-19T17:01:47.131Z,78194.41
2022-12-19T17:03:26.153Z,78190.44
2022-12-19T17:04:59.200Z,78198.34
2022-12-19T17:06:32.133Z,78198.34
2022-12-19T17:08:11.477Z,78206.28
2022-12-19T17:09:44.441Z,78198.34
2022-12-19T17:11:24.827Z,78210.22
2022-12-19T17:12:58.409Z,78226.06
2022-12-19T17:14:34.545Z,78239.91
2022-12-19T17:16:08.183Z,78255.72
2022-12-19T17:17:41.081Z,78261.66
2022-12-19T17:19:24.613Z,78273.53
2022-12-19T17:20:57.260Z,78277.50
2022-12-19T17:22:30.162Z,78293.31
2022-12-19T17:24:02.858Z,78291.34
2022-12-19T17:25:35.542Z,78289.34
2022-12-19T17:27:08.373Z,78297.28
2022-12-19T17:28:48.575Z,78283.44
2022-12-19T17:30:22.018Z,78289.34
2022-12-19T17:31:55.650Z,78289.34
2022-12-19T17:33:33.178Z,78297.28
2022-12-19T17:35:11.186Z,78319.03
2022-12-19T17:36:46.004Z,78317.06
2022-12-19T17:38:18.879Z,78332.88
2022-12-19T17:39:52.050Z,78336.84
2022-12-19T17:41:25.928Z,78326.94
2022-12-19T17:42:59.810Z,78350.69
2022-12-19T17:44:32.399Z,78350.69
2022-12-19T17:46:05.455Z,78358.59
2022-12-19T17:47:38.311Z,78360.56
2022-12-19T17:49:18.789Z,78364.53
2022-12-19T17:50:51.586Z,78356.63
2022-12-19T17:52:24.243Z,78364.53
2022-12-19T17:53:58.716Z,78390.25
2022-12-19T17:55:31.582Z,78384.31
2022-12-19T17:57:04.371Z,78386.28
2022-12-19T17:58:37.007Z,78386.28
2022-12-19T18:00:10.826Z,78380.34
2022-12-19T18:01:47.656Z,78390.25
2022-12-19T18:03:23.100Z,78384.31
2022-12-19T18:04:56.132Z,78390.25
2022-12-19T18:06:29.079Z,78396.19
2022-12-19T18:08:02.224Z,78410.03
2022-12-19T18:09:34.871Z,78412.00
2022-12-19T18:11:15.303Z,78423.88
2022-12-19T18:12:48.324Z,78439.72
2022-12-19T18:14:21.678Z,78449.59
2022-12-19T18:15:58.622Z,78451.56
2022-12-19T18:17:31.279Z,78455.53
2022-12-19T18:19:04.725Z,78477.28
2022-12-19T18:20:37.411Z,78485.22
2022-12-19T18:22:12.789Z,78483.22
2022-12-19T18:23:46.097Z,78481.25
2022-12-19T18:25:20.294Z,78467.41
2022-12-19T18:26:52.945Z,78479.28
2022-12-19T18:28:25.725Z,78475.31
2022-12-19T18:29:58.322Z,78481.25
2022-12-19T18:31:31.308Z,78485.22
2022-12-19T18:33:05.701Z,78503.00
2022-12-19T18:34:38.260Z,78503.00
2022-12-19T18:36:19.636Z,78508.94
2022-12-19T18:37:53.124Z,78526.75
2022-12-19T18:39:26.938Z,78518.84
2022-12-19T18:40:59.680Z,78518.84
2022-12-19T18:42:32.303Z,78534.66
2022-12-19T18:44:05.282Z,78522.81
2022-12-19T18:45:40.251Z,78534.66
2022-12-19T18:47:23.833Z,78532.69
2022-12-19T18:48:56.608Z,78520.81
2022-12-19T18:50:30.807Z,78512.91
2022-12-19T18:52:03.592Z,78505.00
2022-12-19T18:53:37.340Z,78526.75
2022-12-19T18:55:16.304Z,78536.66
2022-12-19T18:56:49.066Z,78530.72
2022-12-19T18:58:22.325Z,78538.63
2022-12-19T18:59:54.959Z,78544.56
2022-12-19T19:01:27.614Z,78546.53
2022-12-19T19:03:02.835Z,78542.59
2022-12-19T19:04:35.632Z,78550.50
2022-12-19T19:06:18.598Z,78542.59
2022-12-19T19:07:51.976Z,78538.63
2022-12-19T19:09:25.177Z,78536.66
2022-12-19T19:11:06.137Z,78538.63
2022-12-19T19:12:38.752Z,78536.66
2022-12-19T19:14:11.830Z,78536.66
2022-12-19T19:15:55.695Z,78550.50
2022-12-19T19:17:29.757Z,78550.50
2022-12-19T19:19:02.472Z,78544.56
2022-12-19T19:20:39.272Z,78536.66
2022-12-19T19:22:12.040Z,78526.75
2022-12-19T19:23:48.023Z,78514.88
2022-12-19T19:25:20.805Z,78526.75